TGPY/GND METAR and TAF weather

Enter ICAO airport designator
Station Type Date Time Source
TGPY METAR 2020/11/25 23:00 UTC NOAA

TGPY 252300Z 06006KT 9999 FEW019 BKN038 26/24 Q1012 NOSIG


Station Type Date Time Source
TGPY Decoded METAR 2020/11/25 23:00 UTC NOAA

Point Salines Airport, Grenada (TGPY) 12-00N 061-47W 7M
Nov 25, 2020 - 06:00 PM EST / 2020.11.25 2300 UTC
Wind: from the ENE (060 degrees) at 7 MPH (6 KT):0
Visibility: greater than 7 mile(s):0
Sky conditions: mostly cloudy
Temperature: 78 F (26 C)
Dew Point: 75 F (24 C)
Relative Humidity: 88%
Pressure (altimeter): 29.88 in. Hg (1012 hPa)
ob: TGPY 252300Z 06006KT 9999 FEW019 BKN038 26/24 Q1012 NOSIG
cycle: 23

Station Type Date Time Source
TGPY TAF 2020/11/25 18:24 UTC NOAA

TAF TAF TGPY 251600Z 2518/2618 09016G26KT 9999 FEW018 SCT040

Example: see airport list